createdAt,value
2016-12-07T00:00:31.411Z,0
2016-12-07T00:01:31.429Z,0
2016-12-07T00:02:31.531Z,0
2016-12-07T00:03:31.538Z,0
2016-12-07T00:04:31.346Z,0
2016-12-07T00:05:32.816Z,0
2016-12-07T00:06:31.364Z,0
2016-12-07T00:07:31.398Z,0
2016-12-07T00:08:31.451Z,0
2016-12-07T00:09:31.394Z,0
2016-12-07T00:10:31.415Z,0
2016-12-07T00:11:31.417Z,0
2016-12-07T00:12:31.624Z,0
2016-12-07T00:13:31.436Z,0
2016-12-07T00:14:31.478Z,0
2016-12-07T00:15:31.642Z,0
2016-12-07T00:16:31.465Z,0
2016-12-07T00:17:31.525Z,0
2016-12-07T00:18:31.496Z,0
2016-12-07T00:19:31.511Z,0
2016-12-07T00:20:31.510Z,0
2016-12-07T00:21:31.520Z,0
2016-12-07T00:22:31.670Z,0
2016-12-07T00:23:31.637Z,0
2016-12-07T00:24:31.669Z,0
2016-12-07T00:25:31.774Z,0
2016-12-07T00:26:31.690Z,0
2016-12-07T00:27:31.698Z,0
2016-12-07T00:28:31.711Z,0
2016-12-07T00:29:31.602Z,0
2016-12-07T00:30:31.758Z,0
2016-12-07T00:31:31.767Z,0
2016-12-07T00:32:31.732Z,0
2016-12-07T00:33:31.647Z,0
2016-12-07T00:34:31.680Z,0
2016-12-07T00:35:31.997Z,0
2016-12-07T00:36:31.693Z,0
2016-12-07T00:37:31.699Z,0
2016-12-07T00:38:31.703Z,0
2016-12-07T00:39:31.713Z,0
2016-12-07T00:40:31.723Z,0
2016-12-07T00:41:31.780Z,0
2016-12-07T00:42:31.827Z,0
2016-12-07T00:43:31.873Z,0
2016-12-07T00:44:31.772Z,0
2016-12-07T00:45:31.774Z,0
2016-12-07T00:46:31.791Z,0
2016-12-07T00:47:31.795Z,0
2016-12-07T00:48:31.806Z,0
2016-12-07T00:49:31.933Z,0
2016-12-07T00:50:31.828Z,0
2016-12-07T00:51:31.842Z,0
2016-12-07T00:52:31.847Z,0
2016-12-07T00:53:31.862Z,0
2016-12-07T00:54:31.869Z,0
2016-12-07T00:55:31.882Z,0
2016-12-07T00:56:31.894Z,0
2016-12-07T00:57:31.902Z,0
2016-12-07T00:58:31.918Z,0
2016-12-07T00:59:31.924Z,0
2016-12-07T01:00:32.018Z,0
2016-12-07T01:01:31.938Z,0
2016-12-07T01:02:31.953Z,0
2016-12-07T01:03:31.957Z,0
2016-12-07T01:04:31.976Z,0
2016-12-07T01:05:31.979Z,0
2016-12-07T01:06:31.996Z,0
2016-12-07T01:07:32.001Z,0
2016-12-07T01:08:32.018Z,0
2016-12-07T01:09:32.028Z,0
2016-12-07T01:10:32.038Z,0
2016-12-07T01:11:32.046Z,0
2016-12-07T01:12:32.060Z,0
2016-12-07T01:13:32.070Z,0
2016-12-07T01:14:32.085Z,0
2016-12-07T01:15:32.090Z,0
2016-12-07T01:16:32.294Z,0
2016-12-07T01:17:32.299Z,0
2016-12-07T01:18:32.236Z,0
2016-12-07T01:19:32.138Z,0
2016-12-07T01:20:32.261Z,0
2016-12-07T01:21:32.177Z,0
2016-12-07T01:22:32.280Z,0
2016-12-07T01:23:32.292Z,0
2016-12-07T01:24:32.183Z,0
2016-12-07T01:25:32.196Z,0
2016-12-07T01:26:32.226Z,0
2016-12-07T01:27:32.226Z,0
2016-12-07T01:28:32.227Z,0
2016-12-07T01:29:32.245Z,0
2016-12-07T01:30:32.249Z,0
2016-12-07T01:31:32.571Z,0
2016-12-07T01:32:32.382Z,0
2016-12-07T01:33:32.288Z,0
2016-12-07T01:34:32.404Z,0
2016-12-07T01:35:32.302Z,0
2016-12-07T01:36:32.317Z,0
2016-12-07T01:37:32.339Z,0
2016-12-07T01:38:32.335Z,0
2016-12-07T01:39:32.467Z,0
2016-12-07T01:40:32.401Z,0
2016-12-07T01:41:32.366Z,0
2016-12-07T01:42:32.602Z,0
2016-12-07T01:43:32.387Z,0
2016-12-07T01:44:32.400Z,0
2016-12-07T01:45:32.408Z,0
2016-12-07T01:46:32.420Z,0
2016-12-07T01:47:32.537Z,0
2016-12-07T01:48:32.436Z,0
2016-12-07T01:49:32.445Z,0
2016-12-07T01:50:32.488Z,0
2016-12-07T01:51:32.461Z,0
2016-12-07T01:52:32.479Z,0
2016-12-07T01:53:32.485Z,0
2016-12-07T01:54:32.500Z,0
2016-12-07T01:55:32.501Z,0
2016-12-07T01:56:32.635Z,0
2016-12-07T01:57:32.524Z,0
2016-12-07T01:58:32.537Z,0
2016-12-07T01:59:32.661Z,0
2016-12-07T02:00:32.595Z,0
2016-12-07T02:01:32.682Z,0
2016-12-07T02:02:32.581Z,0
2016-12-07T02:03:32.699Z,0
2016-12-07T02:04:32.597Z,0
2016-12-07T02:05:32.729Z,0
2016-12-07T02:06:32.614Z,0
2016-12-07T02:07:32.633Z,0
2016-12-07T02:08:32.640Z,0
2016-12-07T02:09:32.661Z,0
2016-12-07T02:10:32.670Z,0
2016-12-07T02:11:32.678Z,0
2016-12-07T02:12:32.708Z,0
2016-12-07T02:13:32.695Z,0
2016-12-07T02:14:32.843Z,0
2016-12-07T02:15:32.833Z,0
2016-12-07T02:16:32.730Z,0
2016-12-07T02:17:32.837Z,0
2016-12-07T02:18:32.752Z,0
2016-12-07T02:19:32.868Z,0
2016-12-07T02:20:32.762Z,0
2016-12-07T02:21:32.784Z,0
2016-12-07T02:22:32.909Z,0
2016-12-07T02:23:32.802Z,0
2016-12-07T02:24:32.920Z,0
2016-12-07T02:25:32.816Z,0
2016-12-07T02:26:32.823Z,0
2016-12-07T02:27:32.872Z,0
2016-12-07T02:28:32.852Z,0
2016-12-07T02:29:33.299Z,0
2016-12-07T02:30:32.869Z,0
2016-12-07T02:31:33.079Z,0
2016-12-07T02:32:32.888Z,0
2016-12-07T02:33:32.907Z,0
2016-12-07T02:34:32.905Z,0
2016-12-07T02:35:32.926Z,0
2016-12-07T02:36:32.929Z,0
2016-12-07T02:37:32.940Z,0
2016-12-07T02:38:32.956Z,0
2016-12-07T02:39:32.964Z,0
2016-12-07T02:40:32.975Z,0
2016-12-07T02:41:32.980Z,0
2016-12-07T02:42:33.109Z,0
2016-12-07T02:43:33.116Z,0
2016-12-07T02:44:33.274Z,0
2016-12-07T02:45:33.140Z,0
2016-12-07T02:46:33.028Z,0
2016-12-07T02:47:33.042Z,0
2016-12-07T02:48:33.369Z,0
2016-12-07T02:49:33.058Z,0
2016-12-07T02:50:33.067Z,0
2016-12-07T02:51:33.112Z,0
2016-12-07T02:52:33.098Z,0
2016-12-07T02:53:33.110Z,0
2016-12-07T02:54:33.111Z,0
2016-12-07T02:55:33.233Z,0
2016-12-07T02:56:33.243Z,0
2016-12-07T02:57:33.143Z,0
2016-12-07T02:58:33.186Z,0
2016-12-07T02:59:33.173Z,0
2016-12-07T03:00:33.175Z,0
2016-12-07T03:01:33.188Z,0
2016-12-07T03:02:33.190Z,0
2016-12-07T03:03:33.202Z,0
2016-12-07T03:04:33.217Z,0
2016-12-07T03:05:33.230Z,0
2016-12-07T03:06:33.232Z,0
2016-12-07T03:07:33.444Z,0
2016-12-07T03:08:33.366Z,0
2016-12-07T03:09:33.388Z,0
2016-12-07T03:10:33.392Z,0
2016-12-07T03:11:33.286Z,0
2016-12-07T03:12:33.293Z,0
2016-12-07T03:13:33.304Z,0
2016-12-07T03:14:33.351Z,0
2016-12-07T03:15:33.329Z,0
2016-12-07T03:16:33.343Z,0
2016-12-07T03:17:33.352Z,0
2016-12-07T03:18:33.356Z,0
2016-12-07T03:19:33.373Z,0
2016-12-07T03:20:33.380Z,0
2016-12-07T03:21:33.387Z,0
2016-12-07T03:22:33.426Z,0
2016-12-07T03:23:33.403Z,0
2016-12-07T03:24:33.425Z,0
2016-12-07T03:25:33.435Z,0
2016-12-07T03:26:33.474Z,0
2016-12-07T03:27:33.452Z,0
2016-12-07T03:28:33.460Z,0
2016-12-07T03:29:33.466Z,0
2016-12-07T03:30:33.480Z,0
2016-12-07T03:31:33.492Z,0
2016-12-07T03:32:33.680Z,0
2016-12-07T03:33:33.642Z,0
2016-12-07T03:34:33.655Z,0
2016-12-07T03:35:33.726Z,0
2016-12-07T03:36:33.652Z,0
2016-12-07T03:37:33.660Z,0
2016-12-07T03:38:33.682Z,0
2016-12-07T03:39:33.688Z,0
2016-12-07T03:40:33.698Z,0
2016-12-07T03:41:33.592Z,0
2016-12-07T03:42:33.597Z,0
2016-12-07T03:43:33.680Z,0
2016-12-07T03:44:33.619Z,0
2016-12-07T03:45:33.630Z,0
2016-12-07T03:46:33.635Z,0
2016-12-07T03:47:33.655Z,0
2016-12-07T03:48:33.661Z,0
2016-12-07T03:49:33.675Z,0
2016-12-07T03:50:33.679Z,0
2016-12-07T03:51:33.690Z,0
2016-12-07T03:52:33.692Z,0
2016-12-07T03:53:33.715Z,0
2016-12-07T03:54:33.715Z,0
2016-12-07T03:55:33.724Z,0
2016-12-07T03:56:33.731Z,0
2016-12-07T03:57:33.748Z,0
2016-12-07T03:58:33.767Z,0
2016-12-07T03:59:33.760Z,0
2016-12-07T04:00:33.777Z,0
2016-12-07T04:01:33.783Z,0
2016-12-07T04:02:33.795Z,0
2016-12-07T04:03:33.805Z,0
2016-12-07T04:04:33.813Z,0
2016-12-07T04:05:33.824Z,0
2016-12-07T04:06:33.829Z,0
2016-12-07T04:07:33.852Z,0
2016-12-07T04:08:33.857Z,0
2016-12-07T04:09:33.869Z,0
2016-12-07T04:10:33.879Z,0
2016-12-07T04:11:33.876Z,0
2016-12-07T04:12:33.891Z,0
2016-12-07T04:13:33.906Z,0
2016-12-07T04:14:33.923Z,0
2016-12-07T04:15:34.337Z,0
2016-12-07T04:16:33.944Z,0
2016-12-07T04:17:33.943Z,0
2016-12-07T04:18:33.945Z,0
2016-12-07T04:19:33.965Z,0
2016-12-07T04:20:33.971Z,0
2016-12-07T04:21:33.978Z,0
2016-12-07T04:22:34.061Z,0
2016-12-07T04:23:33.992Z,0
2016-12-07T04:24:34.013Z,0
2016-12-07T04:25:34.122Z,0
2016-12-07T04:26:34.140Z,0
2016-12-07T04:27:34.153Z,0
2016-12-07T04:28:34.151Z,0
2016-12-07T04:29:34.065Z,0
2016-12-07T04:30:34.078Z,0
2016-12-07T04:31:34.080Z,0
2016-12-07T04:32:34.090Z,0
2016-12-07T04:33:34.101Z,0
2016-12-07T04:34:34.102Z,0
2016-12-07T04:35:34.118Z,0
2016-12-07T04:36:34.132Z,0
2016-12-07T04:37:34.136Z,0
2016-12-07T04:38:34.145Z,0
2016-12-07T04:39:34.163Z,0
2016-12-07T04:40:34.168Z,0
2016-12-07T04:41:34.176Z,0
2016-12-07T04:42:34.190Z,0
2016-12-07T04:43:34.198Z,0
2016-12-07T04:44:34.209Z,0
2016-12-07T04:45:34.232Z,0
2016-12-07T04:46:34.224Z,0
2016-12-07T04:47:34.227Z,0
2016-12-07T04:48:34.255Z,0
2016-12-07T04:49:34.262Z,0
2016-12-07T04:50:34.263Z,0
2016-12-07T04:51:34.284Z,0
2016-12-07T04:52:34.284Z,0
2016-12-07T04:53:34.319Z,0
2016-12-07T04:54:34.306Z,0
2016-12-07T04:55:34.309Z,0
2016-12-07T04:56:34.327Z,0
2016-12-07T04:57:34.327Z,0
2016-12-07T04:58:34.659Z,0
2016-12-07T04:59:34.348Z,0
2016-12-07T05:00:34.361Z,0
2016-12-07T05:01:34.374Z,0
2016-12-07T05:02:34.376Z,0
2016-12-07T05:03:34.388Z,0
2016-12-07T05:04:34.409Z,0
2016-12-07T05:05:34.423Z,0
2016-12-07T05:06:34.422Z,0
2016-12-07T05:07:34.439Z,0
2016-12-07T05:08:34.437Z,0
2016-12-07T05:09:34.453Z,0
2016-12-07T05:10:34.459Z,0
2016-12-07T05:11:34.465Z,0
2016-12-07T05:12:34.478Z,0
2016-12-07T05:13:34.491Z,0
2016-12-07T05:14:34.513Z,0
2016-12-07T05:15:34.507Z,0
2016-12-07T05:16:34.507Z,0
2016-12-07T05:17:34.527Z,0
2016-12-07T05:18:34.532Z,0
2016-12-07T05:19:34.545Z,0
2016-12-07T05:20:34.558Z,0
2016-12-07T05:21:34.567Z,0
2016-12-07T05:22:34.574Z,0
2016-12-07T05:23:34.591Z,0
2016-12-07T05:24:34.620Z,0
2016-12-07T05:25:34.601Z,0
2016-12-07T05:26:34.621Z,0
2016-12-07T05:27:34.622Z,0
2016-12-07T05:28:34.640Z,0
2016-12-07T05:29:34.646Z,0
2016-12-07T05:30:34.642Z,0
2016-12-07T05:31:34.662Z,0
2016-12-07T05:32:34.670Z,0
2016-12-07T05:33:34.675Z,0
2016-12-07T05:34:34.683Z,0
2016-12-07T05:35:34.693Z,0
2016-12-07T05:36:34.706Z,0
2016-12-07T05:37:34.720Z,0
2016-12-07T05:38:34.726Z,0
2016-12-07T05:39:34.747Z,0
2016-12-07T05:40:34.744Z,0
2016-12-07T05:41:34.789Z,0
2016-12-07T05:42:35.079Z,0
2016-12-07T05:43:34.778Z,0
2016-12-07T05:44:34.780Z,0
2016-12-07T05:45:34.783Z,0
2016-12-07T05:46:34.804Z,0
2016-12-07T05:47:34.844Z,0
2016-12-07T05:48:34.836Z,0
2016-12-07T05:49:34.836Z,0
2016-12-07T05:50:34.839Z,0
2016-12-07T05:51:34.851Z,0
2016-12-07T05:52:34.853Z,0
2016-12-07T05:53:34.872Z,0
2016-12-07T05:54:34.893Z,0
2016-12-07T05:55:34.892Z,0
2016-12-07T05:56:34.893Z,0
2016-12-07T05:57:34.903Z,0
2016-12-07T05:58:34.924Z,0
2016-12-07T05:59:34.928Z,0
2016-12-07T06:00:34.945Z,0
2016-12-07T06:01:34.951Z,0
2016-12-07T06:02:34.962Z,0
2016-12-07T06:03:34.955Z,0
2016-12-07T06:04:34.973Z,0
2016-12-07T06:05:34.982Z,0
2016-12-07T06:06:34.995Z,0
2016-12-07T06:07:35.015Z,0
2016-12-07T06:08:35.013Z,0
2016-12-07T06:09:35.023Z,0
2016-12-07T06:10:35.029Z,0
2016-12-07T06:11:35.045Z,0
2016-12-07T06:12:35.047Z,0
2016-12-07T06:13:35.067Z,0
2016-12-07T06:14:35.071Z,0
2016-12-07T06:15:35.076Z,0
2016-12-07T06:16:35.096Z,0
2016-12-07T06:17:35.096Z,0
2016-12-07T06:18:35.101Z,0
2016-12-07T06:19:35.135Z,0
2016-12-07T06:20:35.121Z,0
2016-12-07T06:21:35.135Z,0
2016-12-07T06:22:35.147Z,0
2016-12-07T06:23:35.156Z,0
2016-12-07T06:24:35.159Z,0
2016-12-07T06:25:35.187Z,0
2016-12-07T06:26:35.201Z,0
2016-12-07T06:27:35.189Z,0
2016-12-07T06:28:35.201Z,0
2016-12-07T06:29:35.214Z,0
2016-12-07T06:30:35.228Z,0
2016-12-07T06:31:35.225Z,0
2016-12-07T06:32:35.265Z,0
2016-12-07T06:33:35.255Z,0
2016-12-07T06:34:35.257Z,0
2016-12-07T06:35:35.268Z,0
2016-12-07T06:36:35.269Z,0
2016-12-07T06:37:35.282Z,4
2016-12-07T06:38:35.298Z,4
2016-12-07T06:39:35.319Z,4
2016-12-07T06:40:35.312Z,0
2016-12-07T06:41:35.319Z,4
2016-12-07T06:42:35.361Z,4
2016-12-07T06:43:35.332Z,0
2016-12-07T06:44:35.345Z,4
2016-12-07T06:45:35.354Z,8
2016-12-07T06:46:35.359Z,4
2016-12-07T06:47:35.383Z,8
2016-12-07T06:48:35.385Z,4
2016-12-07T06:49:35.393Z,8
2016-12-07T06:50:35.410Z,8
2016-12-07T06:51:35.421Z,8
2016-12-07T06:52:35.424Z,12
2016-12-07T06:53:35.433Z,8
2016-12-07T06:54:35.443Z,12
2016-12-07T06:55:35.443Z,12
2016-12-07T06:56:35.463Z,16
2016-12-07T06:57:35.471Z,16
2016-12-07T06:58:35.476Z,16
2016-12-07T06:59:35.491Z,20
2016-12-07T07:00:35.504Z,20
2016-12-07T07:01:35.533Z,20
2016-12-07T07:02:35.853Z,24
2016-12-07T07:03:35.523Z,28
2016-12-07T07:04:35.535Z,32
2016-12-07T07:05:35.546Z,32
2016-12-07T07:06:35.548Z,32
2016-12-07T07:07:35.564Z,36
2016-12-07T07:08:35.571Z,40
2016-12-07T07:09:35.583Z,40
2016-12-07T07:10:35.594Z,40
2016-12-07T07:12:07.669Z,48
2016-12-07T07:12:35.632Z,48
2016-12-07T07:13:35.618Z,52
2016-12-07T07:14:35.628Z,56
2016-12-07T07:15:35.664Z,60
2016-12-07T07:16:35.649Z,64
2016-12-07T07:17:35.659Z,68
2016-12-07T07:18:35.662Z,72
2016-12-07T07:19:35.668Z,76
2016-12-07T07:20:35.678Z,80
2016-12-07T07:21:35.698Z,84
2016-12-07T07:22:35.695Z,84
2016-12-07T07:23:35.714Z,88
2016-12-07T07:24:35.721Z,92
2016-12-07T07:25:35.723Z,100
2016-12-07T07:26:35.741Z,104
2016-12-07T07:27:35.773Z,108
2016-12-07T07:28:35.755Z,108
2016-12-07T07:29:35.771Z,116
2016-12-07T07:30:35.774Z,116
2016-12-07T07:31:35.785Z,120
2016-12-07T07:32:36.230Z,124
2016-12-07T07:33:35.812Z,128
2016-12-07T07:34:35.808Z,132
2016-12-07T07:35:35.818Z,132
2016-12-07T07:36:35.825Z,140
2016-12-07T07:37:35.859Z,144
2016-12-07T07:38:35.843Z,148
2016-12-07T07:39:35.856Z,156
2016-12-07T07:40:35.860Z,160
2016-12-07T07:41:35.865Z,160
2016-12-07T07:42:35.997Z,164
2016-12-07T07:43:35.886Z,172
2016-12-07T07:44:36.019Z,176
2016-12-07T07:45:35.906Z,184
2016-12-07T07:46:35.908Z,188
2016-12-07T07:47:35.926Z,192
2016-12-07T07:48:36.052Z,196
2016-12-07T07:49:35.947Z,200
2016-12-07T07:50:35.953Z,212
2016-12-07T07:51:35.965Z,220
2016-12-07T07:52:35.968Z,228
2016-12-07T07:53:35.988Z,236
2016-12-07T07:54:35.994Z,244
2016-12-07T07:55:35.999Z,252
2016-12-07T07:56:36.008Z,260
2016-12-07T07:57:36.024Z,268
2016-12-07T07:58:36.028Z,276
2016-12-07T07:59:36.045Z,292
2016-12-07T08:00:36.070Z,300
2016-12-07T08:01:36.050Z,304
2016-12-07T08:02:36.273Z,300
2016-12-07T08:03:36.185Z,296
2016-12-07T08:04:36.194Z,292
2016-12-07T08:05:36.124Z,292
2016-12-07T08:06:36.425Z,288
2016-12-07T08:07:36.316Z,296
2016-12-07T08:08:36.129Z,304
2016-12-07T08:09:36.190Z,316
2016-12-07T08:10:36.239Z,324
2016-12-07T08:11:36.154Z,328
2016-12-07T08:12:36.248Z,336
2016-12-07T08:13:36.277Z,340
2016-12-07T08:14:36.186Z,340
2016-12-07T08:15:36.343Z,348
2016-12-07T08:16:36.228Z,360
2016-12-07T08:17:36.229Z,372
2016-12-07T08:18:36.213Z,384
2016-12-07T08:19:36.233Z,380
2016-12-07T08:20:36.237Z,380
2016-12-07T08:21:36.254Z,376
2016-12-07T08:22:36.256Z,376
2016-12-07T08:23:36.267Z,376
2016-12-07T08:24:36.413Z,376
2016-12-07T08:25:36.433Z,384
2016-12-07T08:26:36.403Z,388
2016-12-07T08:27:36.303Z,400
2016-12-07T08:28:36.314Z,420
2016-12-07T08:29:36.330Z,444
2016-12-07T08:30:36.338Z,468
2016-12-07T08:31:36.333Z,468
2016-12-07T08:32:36.346Z,460
2016-12-07T08:33:36.356Z,452
2016-12-07T08:34:36.453Z,440
2016-12-07T08:35:36.378Z,436
2016-12-07T08:36:36.417Z,432
2016-12-07T08:37:36.397Z,436
2016-12-07T08:38:36.405Z,440
2016-12-07T08:39:36.446Z,440
2016-12-07T08:40:36.426Z,424
2016-12-07T08:41:36.741Z,412
2016-12-07T08:42:36.446Z,412
2016-12-07T08:43:36.455Z,412
2016-12-07T08:44:36.692Z,416
2016-12-07T08:45:36.472Z,420
2016-12-07T08:46:36.481Z,436
2016-12-07T08:47:36.493Z,440
2016-12-07T08:48:36.505Z,440
2016-12-07T08:49:36.822Z,428
2016-12-07T08:50:36.519Z,424
2016-12-07T08:51:36.565Z,424
2016-12-07T08:52:36.543Z,416
2016-12-07T08:53:36.551Z,416
2016-12-07T08:54:36.562Z,420
2016-12-07T08:55:36.571Z,424
2016-12-07T08:56:36.673Z,432
2016-12-07T08:57:36.584Z,444
2016-12-07T08:58:36.597Z,460
2016-12-07T08:59:36.604Z,488
2016-12-07T09:00:36.619Z,512
2016-12-07T09:01:36.621Z,540
2016-12-07T09:02:36.635Z,572
2016-12-07T09:03:36.644Z,592
2016-12-07T09:04:36.662Z,604
2016-12-07T09:05:36.668Z,608
2016-12-07T09:06:36.716Z,608
2016-12-07T09:07:36.680Z,604
2016-12-07T09:08:36.694Z,596
2016-12-07T09:09:36.698Z,596
2016-12-07T09:10:36.718Z,596
2016-12-07T09:11:36.718Z,604
2016-12-07T09:12:36.726Z,604
2016-12-07T09:13:36.747Z,616
2016-12-07T09:14:36.746Z,624
2016-12-07T09:15:36.767Z,624
2016-12-07T09:16:36.773Z,616
2016-12-07T09:17:36.782Z,604
2016-12-07T09:18:36.907Z,600
2016-12-07T09:19:36.799Z,596
2016-12-07T09:20:36.803Z,596
2016-12-07T09:21:36.820Z,608
2016-12-07T09:22:36.900Z,616
2016-12-07T09:23:37.148Z,624
2016-12-07T09:24:36.849Z,624
2016-12-07T09:25:36.974Z,628
2016-12-07T09:26:36.986Z,640
2016-12-07T09:27:36.983Z,660
2016-12-07T09:28:36.889Z,676
2016-12-07T09:29:36.902Z,692
2016-12-07T09:30:36.999Z,704
2016-12-07T09:31:37.119Z,720
2016-12-07T09:32:36.923Z,720
2016-12-07T09:33:37.025Z,712
2016-12-07T09:34:36.959Z,704
2016-12-07T09:35:36.960Z,692
2016-12-07T09:36:36.964Z,684
2016-12-07T09:37:37.113Z,672
2016-12-07T09:38:37.222Z,660
2016-12-07T09:39:37.121Z,644
2016-12-07T09:40:37.004Z,620
2016-12-07T09:41:37.134Z,600
2016-12-07T09:42:37.025Z,580
2016-12-07T09:43:37.035Z,580
2016-12-07T09:44:37.046Z,588
2016-12-07T09:45:37.363Z,596
2016-12-07T09:46:37.078Z,604
2016-12-07T09:47:37.075Z,608
2016-12-07T09:48:37.109Z,616
2016-12-07T09:49:37.117Z,620
2016-12-07T09:50:37.423Z,616
2016-12-07T09:51:37.109Z,616
2016-12-07T09:52:37.129Z,604
2016-12-07T09:53:37.200Z,596
2016-12-07T09:54:37.221Z,588
2016-12-07T09:55:37.286Z,588
2016-12-07T09:56:37.185Z,592
2016-12-07T09:57:37.429Z,596
2016-12-07T09:58:37.228Z,608
2016-12-07T09:59:37.262Z,616
2016-12-07T10:00:37.201Z,624
2016-12-07T10:01:37.694Z,640
2016-12-07T10:02:37.226Z,656
2016-12-07T10:03:37.346Z,672
2016-12-07T10:04:37.362Z,688
2016-12-07T10:05:37.548Z,708
2016-12-07T10:06:37.258Z,720
2016-12-07T10:07:37.280Z,740
2016-12-07T10:08:37.482Z,756
2016-12-07T10:09:37.320Z,764
2016-12-07T10:10:37.309Z,772
2016-12-07T10:11:37.519Z,772
2016-12-07T10:12:37.427Z,784
2016-12-07T10:13:37.362Z,796
2016-12-07T10:14:37.485Z,800
2016-12-07T10:15:37.353Z,808
2016-12-07T10:16:37.373Z,816
2016-12-07T10:17:37.371Z,820
2016-12-07T10:18:37.378Z,816
2016-12-07T10:19:37.507Z,812
2016-12-07T10:20:37.405Z,800
2016-12-07T10:21:37.770Z,788
2016-12-07T10:22:37.435Z,768
2016-12-07T10:23:37.444Z,752
2016-12-07T10:24:37.449Z,740
2016-12-07T10:25:37.448Z,724
2016-12-07T10:26:37.477Z,716
2016-12-07T10:27:37.603Z,712
2016-12-07T10:28:37.483Z,708
2016-12-07T10:29:37.613Z,700
2016-12-07T10:30:37.511Z,692
2016-12-07T10:31:37.836Z,692
2016-12-07T10:32:37.645Z,688
2016-12-07T10:33:37.541Z,676
2016-12-07T10:34:37.542Z,660
2016-12-07T10:35:37.565Z,644
2016-12-07T10:36:37.760Z,628
2016-12-07T10:37:37.613Z,620
2016-12-07T10:38:37.592Z,608
2016-12-07T10:39:37.601Z,592
2016-12-07T10:40:37.617Z,584
2016-12-07T10:41:37.731Z,576
2016-12-07T10:42:37.668Z,572
2016-12-07T10:43:37.636Z,568
2016-12-07T10:44:37.768Z,576
2016-12-07T10:45:37.775Z,588
2016-12-07T10:46:37.706Z,592
2016-12-07T10:47:37.688Z,596
2016-12-07T10:48:37.686Z,596
2016-12-07T10:49:37.700Z,600
2016-12-07T10:50:37.705Z,620
2016-12-07T10:51:37.723Z,644
2016-12-07T10:52:37.859Z,672
2016-12-07T10:53:37.747Z,688
2016-12-07T10:54:37.756Z,688
2016-12-07T10:55:37.757Z,664
2016-12-07T10:56:37.775Z,628
2016-12-07T10:57:37.785Z,608
2016-12-07T10:58:37.792Z,608
2016-12-07T10:59:37.986Z,628
2016-12-07T11:00:37.810Z,652
2016-12-07T11:01:37.829Z,644
2016-12-07T11:02:37.835Z,604
2016-12-07T11:03:37.951Z,572
2016-12-07T11:04:37.867Z,580
2016-12-07T11:05:37.871Z,596
2016-12-07T11:06:37.871Z,616
2016-12-07T11:07:37.975Z,588
2016-12-07T11:08:38.002Z,584
2016-12-07T11:09:38.013Z,576
2016-12-07T11:10:38.023Z,564
2016-12-07T11:11:37.927Z,540
2016-12-07T11:12:37.942Z,536
2016-12-07T11:13:37.957Z,560
2016-12-07T11:14:37.952Z,544
2016-12-07T11:15:37.963Z,540
2016-12-07T11:16:37.980Z,556
2016-12-07T11:17:38.337Z,588
2016-12-07T11:18:37.997Z,612
2016-12-07T11:19:38.012Z,620
2016-12-07T11:20:38.083Z,624
2016-12-07T11:21:38.023Z,620
2016-12-07T11:22:38.037Z,640
2016-12-07T11:23:38.053Z,664
2016-12-07T11:24:38.172Z,668
2016-12-07T11:25:38.067Z,688
2016-12-07T11:26:38.080Z,752
2016-12-07T11:27:38.088Z,820
2016-12-07T11:28:38.099Z,856
2016-12-07T11:29:38.105Z,884
2016-12-07T11:30:38.117Z,892
2016-12-07T11:31:38.343Z,904
2016-12-07T11:32:38.140Z,928
2016-12-07T11:33:38.154Z,944
2016-12-07T11:34:38.298Z,952
2016-12-07T11:35:38.268Z,968
2016-12-07T11:36:38.290Z,960
2016-12-07T11:37:38.304Z,952
2016-12-07T11:38:38.401Z,956
2016-12-07T11:39:38.216Z,944
2016-12-07T11:40:38.228Z,936
2016-12-07T11:41:38.262Z,936
2016-12-07T11:42:38.238Z,932
2016-12-07T11:43:38.266Z,900
2016-12-07T11:44:38.255Z,880
2016-12-07T11:45:38.277Z,884
2016-12-07T11:46:38.290Z,884
2016-12-07T11:47:38.723Z,896
2016-12-07T11:48:38.302Z,912
2016-12-07T11:49:38.321Z,920
2016-12-07T11:50:38.397Z,912
2016-12-07T11:51:38.347Z,900
2016-12-07T11:52:38.353Z,888
2016-12-07T11:53:38.357Z,868
2016-12-07T11:54:38.591Z,848
2016-12-07T11:55:38.585Z,836
2016-12-07T11:56:38.391Z,844
2016-12-07T11:57:38.394Z,832
2016-12-07T11:58:38.414Z,828
2016-12-07T11:59:38.418Z,816
2016-12-07T12:00:38.433Z,804
2016-12-07T12:01:38.450Z,780
2016-12-07T12:02:38.453Z,756
2016-12-07T12:03:38.461Z,764
2016-12-07T12:04:38.590Z,796
2016-12-07T12:05:38.486Z,816
2016-12-07T12:06:38.609Z,804
2016-12-07T12:07:38.505Z,780
2016-12-07T12:08:38.513Z,784
2016-12-07T12:09:38.521Z,788
2016-12-07T12:10:38.670Z,808
2016-12-07T12:11:38.662Z,816
2016-12-07T12:12:38.664Z,820
2016-12-07T12:13:38.566Z,820
2016-12-07T12:14:38.584Z,816
2016-12-07T12:15:38.581Z,820
2016-12-07T12:16:38.593Z,812
2016-12-07T12:17:38.616Z,796
2016-12-07T12:18:38.626Z,788
2016-12-07T12:19:38.744Z,780
2016-12-07T12:20:38.644Z,764
2016-12-07T12:21:38.657Z,748
2016-12-07T12:22:38.661Z,732
2016-12-07T12:23:38.793Z,732
2016-12-07T12:24:38.827Z,728
2016-12-07T12:25:38.808Z,732
2016-12-07T12:26:38.705Z,724
2016-12-07T12:27:38.832Z,720
2016-12-07T12:28:38.846Z,708
2016-12-07T12:29:38.859Z,696
2016-12-07T12:30:38.753Z,688
2016-12-07T12:31:38.760Z,676
2016-12-07T12:32:38.879Z,676
2016-12-07T12:33:38.787Z,668
2016-12-07T12:34:38.792Z,664
2016-12-07T12:35:38.811Z,640
2016-12-07T12:36:39.001Z,636
2016-12-07T12:37:38.936Z,652
2016-12-07T12:38:38.834Z,652
2016-12-07T12:39:38.846Z,656
2016-12-07T12:40:38.854Z,652
2016-12-07T12:41:38.869Z,656
2016-12-07T12:42:38.878Z,656
2016-12-07T12:43:38.892Z,648
2016-12-07T12:44:38.907Z,652
2016-12-07T12:45:38.904Z,656
2016-12-07T12:46:38.920Z,652
2016-12-07T12:47:39.083Z,652
2016-12-07T12:48:38.987Z,652
2016-12-07T12:49:38.959Z,660
2016-12-07T12:50:38.967Z,672
2016-12-07T12:51:38.969Z,664
2016-12-07T12:52:38.985Z,636
2016-12-07T12:53:39.087Z,620
2016-12-07T12:54:39.004Z,644
2016-12-07T12:55:39.012Z,656
2016-12-07T12:56:39.029Z,660
2016-12-07T12:57:39.120Z,664
2016-12-07T12:58:39.038Z,668
2016-12-07T12:59:39.061Z,668
2016-12-07T13:00:39.185Z,644
2016-12-07T13:01:39.085Z,608
2016-12-07T13:02:39.086Z,596
2016-12-07T13:03:39.146Z,588
2016-12-07T13:04:39.105Z,580
2016-12-07T13:05:39.119Z,568
2016-12-07T13:06:39.129Z,552
2016-12-07T13:07:39.149Z,532
2016-12-07T13:08:39.145Z,516
2016-12-07T13:09:39.162Z,508
2016-12-07T13:10:39.287Z,488
2016-12-07T13:11:39.182Z,476
2016-12-07T13:12:39.199Z,464
2016-12-07T13:13:39.260Z,468
2016-12-07T13:14:39.211Z,472
2016-12-07T13:15:39.345Z,476
2016-12-07T13:16:39.348Z,484
2016-12-07T13:17:39.248Z,504
2016-12-07T13:18:39.362Z,508
2016-12-07T13:19:39.276Z,508
2016-12-07T13:20:39.275Z,488
2016-12-07T13:21:39.416Z,472
2016-12-07T13:22:39.338Z,464
2016-12-07T13:23:39.428Z,456
2016-12-07T13:24:39.319Z,448
2016-12-07T13:25:39.337Z,436
2016-12-07T13:26:39.507Z,448
2016-12-07T13:27:39.741Z,452
2016-12-07T13:28:39.526Z,448
2016-12-07T13:29:39.571Z,444
2016-12-07T13:30:39.393Z,436
2016-12-07T13:31:39.399Z,416
2016-12-07T13:32:39.500Z,400
2016-12-07T13:33:39.422Z,396
2016-12-07T13:34:39.572Z,404
2016-12-07T13:35:39.555Z,400
2016-12-07T13:36:39.449Z,412
2016-12-07T13:37:39.525Z,424
2016-12-07T13:38:39.472Z,424
2016-12-07T13:39:39.531Z,420
2016-12-07T13:40:39.599Z,432
2016-12-07T13:41:39.608Z,432
2016-12-07T13:42:39.522Z,416
2016-12-07T13:43:39.563Z,396
2016-12-07T13:44:39.858Z,384
2016-12-07T13:45:39.574Z,372
2016-12-07T13:46:40.217Z,348
2016-12-07T13:47:39.769Z,328
2016-12-07T13:48:39.587Z,332
2016-12-07T13:49:39.589Z,352
2016-12-07T13:50:39.610Z,368
2016-12-07T13:51:39.610Z,364
2016-12-07T13:52:39.633Z,348
2016-12-07T13:53:39.645Z,336
2016-12-07T13:54:39.648Z,336
2016-12-07T13:55:39.717Z,352
2016-12-07T13:56:39.673Z,352
2016-12-07T13:57:39.679Z,364
2016-12-07T13:58:39.693Z,388
2016-12-07T13:59:39.741Z,396
2016-12-07T14:00:39.751Z,408
2016-12-07T14:01:39.756Z,412
2016-12-07T14:02:39.740Z,404
2016-12-07T14:03:39.742Z,384
2016-12-07T14:04:39.983Z,360
2016-12-07T14:05:39.766Z,356
2016-12-07T14:06:39.824Z,352
2016-12-07T14:07:39.784Z,356
2016-12-07T14:08:39.798Z,352
2016-12-07T14:09:39.806Z,344
2016-12-07T14:10:39.824Z,336
2016-12-07T14:11:40.141Z,336
2016-12-07T14:12:39.842Z,328
2016-12-07T14:13:39.855Z,312
2016-12-07T14:14:39.859Z,300
2016-12-07T14:15:39.868Z,292